Airport Name : Rabil

Other Name : Rabil

ICAO : GVBA

IATA : BVC

FAA :

Latitude : 16.136531

Longitude : -22.888897

Country : Cape Verde

Local Date and Time : 6/18/2018 5:41:00 PM

 

TAF (Terminal Aerodrome Forecast)

 

METAR (METeorological Aerodrome Report)

GVBA 181800Z 01013KT 9999 BKN015 24/17 Q1018 NOSIG

GVBA 181700Z 03010KT 9999 BKN015 24/17 Q1018 NOSIG

GVBA 181600Z 36013KT 9999 BKN015 25/17 Q1018 NOSIG

GVBA 181500Z 36014KT 9999 FEW015 25/17 Q1018 NOSIG